Time;durP1;ratioP1;P1;durP2;ratioP2;P2;SDS_P1;SDS_P2;PMS_P1;PMS_P2;Temp;Humidity;BMP_temperature;BMP_pressure;BME280_temperature;BME280_humidity;BME280_pressure;Samples;Min_cycle;Max_cycle;Signal;HPM_P1;HPM_P2
2022/01/14 00:02:32;;;;;;;335.48;28.83;;;;;;;0.39;69.05;102064.31;10468284;28;20453;-64
2022/01/14 00:07:33;;;;;;;365.88;26.45;;;;;;;0.32;69.17;102056.47;10468620;28;20167;-65
2022/01/14 00:12:40;;;;;;;367.15;25.88;;;;;;;0.37;69.13;102054.81;10450627;28;20143;-64
2022/01/14 00:17:42;;;;;;;494.52;29.63;;;;;;;0.21;69.08;102063.16;10467073;28;20424;-64
2022/01/14 00:22:44;;;;;;;395.55;25.90;;;;;;;0.21;69.32;102055.44;10463745;28;20166;-64
2022/01/14 00:33:08;;;;;;;481.52;28.10;;;;;;;0.25;69.34;102024.63;10465092;28;20051;-64
2022/01/14 00:38:12;;;;;;;555.38;29.02;;;;;;;0.17;69.28;102030.50;10466525;28;20091;-64
2022/01/14 00:43:15;;;;;;;488.98;26.02;;;;;;;0.14;69.57;102031.31;10457439;28;20063;-64
2022/01/14 00:48:19;;;;;;;350.58;22.73;;;;;;;0.16;69.17;102041.63;10465041;28;20056;-64
2022/01/14 00:53:21;;;;;;;276.35;23.77;;;;;;;0.12;69.43;102037.25;10466686;28;20067;-64
2022/01/14 01:03:43;;;;;;;242.45;23.67;;;;;;;0.09;69.48;102029.50;10466146;28;20092;-64
2022/01/14 01:08:47;;;;;;;277.20;20.80;;;;;;;0.14;69.46;102027.84;10466165;28;20053;-64
2022/01/14 01:13:58;;;;;;;351.20;22.27;;;;;;;0.12;69.25;102025.25;10448288;28;20096;-64
2022/01/14 01:19:00;;;;;;;;;;;;;;;-0.23;69.91;102011.00;10465442;28;20060;-64
2022/01/14 01:24:03;;;;;;;329.02;20.05;;;;;;;-0.06;69.57;102011.25;10465791;28;19920;-64
2022/01/14 01:34:17;;;;;;;475.15;28.58;;;;;;;-0.17;69.45;102012.78;10465064;28;20059;-65
2022/01/14 01:39:23;;;;;;;182.15;18.67;;;;;;;-0.11;69.66;102000.03;10465910;28;20088;-64
2022/01/14 01:44:26;;;;;;;330.45;22.10;;;;;;;-0.06;69.47;102001.81;10465775;28;20066;-64
2022/01/14 01:49:31;;;;;;;281.33;21.85;;;;;;;-0.32;69.70;101991.13;10464579;28;20053;-64
2022/01/14 01:54:34;;;;;;;216.55;19.00;;;;;;;-0.21;69.86;101991.31;10467258;28;20048;-64
2022/01/14 01:59:36;;;;;;;335.80;23.13;;;;;;;-0.22;69.76;101994.69;10473304;28;20067;-64
2022/01/14 02:04:38;;;;;;;453.60;25.92;;;;;;;-0.21;69.47;101993.88;10473366;28;20092;-64
2022/01/14 02:09:40;;;;;;;515.20;30.42;;;;;;;-0.11;69.25;101982.91;10473225;28;20052;-64
2022/01/14 02:15:09;;;;;;;432.05;29.35;;;;;;;0.03;68.98;101988.25;10473126;28;20128;-64
2022/01/14 02:25:29;;;;;;;117.18;21.85;;;;;;;0.04;68.99;101970.25;10472361;28;20508;-64
2022/01/14 02:30:34;;;;;;;283.67;19.02;;;;;;;0.07;69.01;101966.88;10452523;28;20049;-64
2022/01/14 02:35:37;;;;;;;103.15;20.38;;;;;;;0.01;68.96;101967.66;10471827;28;20066;-65
2022/01/14 02:40:40;;;;;;;282.98;29.10;;;;;;;-0.04;68.47;101971.84;10471658;28;20048;-64
2022/01/14 02:45:52;;;;;;;200.40;25.58;;;;;;;-0.31;68.72;101959.41;10469581;28;20060;-64
2022/01/14 02:56:01;;;;;;;430.83;27.90;;;;;;;-0.45;69.21;101963.47;10471623;28;20328;-64
2022/01/14 03:01:06;;;;;;;340.77;28.88;;;;;;;-0.39;68.97;101945.56;10471139;28;20131;-64
2022/01/14 03:06:07;;;;;;;314.38;22.75;;;;;;;-0.33;69.20;101940.53;10476778;28;20159;-64
2022/01/14 03:11:12;;;;;;;353.55;23.08;;;;;;;-0.26;69.02;101945.75;10478606;28;20152;-64
2022/01/14 03:16:19;;;;;;;333.48;25.05;;;;;;;-0.14;68.80;101946.84;10478360;28;20057;-66
2022/01/14 03:21:29;;;;;;;497.73;27.50;;;;;;;-0.02;68.65;101954.72;10476721;28;20175;-64
2022/01/14 03:26:31;;;;;;;289.25;19.13;;;;;;;0.05;68.69;101956.56;10460400;28;20415;-65
2022/01/14 03:31:32;;;;;;;362.95;23.23;;;;;;;0.04;68.68;101951.38;10475939;28;20242;-65
2022/01/14 03:36:34;;;;;;;227.77;18.70;;;;;;;-0.07;68.45;101952.94;10477060;28;20056;-64
2022/01/14 03:41:36;;;;;;;457.45;25.13;;;;;;;-0.09;68.47;101954.63;10477149;28;20060;-64
2022/01/14 03:46:38;;;;;;;226.65;20.83;;;;;;;-0.13;68.49;101935.72;10476909;28;20135;-64
2022/01/14 03:51:41;;;;;;;412.33;22.23;;;;;;;-0.22;68.81;101935.56;10477451;28;20080;-65
2022/01/14 03:56:43;;;;;;;218.57;18.20;;;;;;;-0.17;68.70;101936.50;10470612;28;20087;-64
2022/01/14 04:01:46;;;;;;;148.85;18.30;;;;;;;-0.09;68.43;101937.50;10474302;28;20175;-64
2022/01/14 04:06:48;;;;;;;156.23;38.85;;;;;;;-0.21;68.70;101932.16;10469760;28;20163;-65
2022/01/14 04:11:50;;;;;;;209.23;23.58;;;;;;;-0.29;68.77;101932.88;10468128;28;20048;-65
2022/01/14 04:16:52;;;;;;;187.98;21.25;;;;;;;-0.21;68.76;101923.56;10465656;28;20445;-64
2022/01/14 04:21:55;;;;;;;306.27;20.63;;;;;;;-0.23;68.28;101912.41;10467917;28;20056;-65
2022/01/14 04:26:57;;;;;;;429.25;20.70;;;;;;;-0.38;68.89;101903.63;10469318;28;20053;-64
2022/01/14 04:31:59;;;;;;;799.13;34.60;;;;;;;-0.42;68.59;101891.56;10449113;28;20056;-64
2022/01/14 04:37:01;;;;;;;297.42;21.33;;;;;;;-0.42;68.81;101894.13;10467409;28;20060;-64
2022/01/14 04:42:04;;;;;;;372.13;23.15;;;;;;;-0.45;69.25;101878.63;10462237;28;20056;-64
2022/01/14 04:47:30;;;;;;;411.48;22.52;;;;;;;-0.56;69.07;101874.19;10466398;28;20214;-64
2022/01/14 04:52:31;;;;;;;223.13;28.90;;;;;;;-0.47;69.34;101875.19;10461900;28;20063;-64
2022/01/14 04:57:33;;;;;;;174.52;17.40;;;;;;;-0.47;69.20;101864.03;10466390;28;20284;-64
2022/01/14 05:02:36;;;;;;;104.47;15.60;;;;;;;-0.47;69.38;101864.91;10467550;28;20140;-64
2022/01/14 05:07:39;;;;;;;144.02;15.98;;;;;;;-0.45;69.05;101849.50;10467384;28;20557;-64
2022/01/14 05:12:42;;;;;;;61.47;15.40;;;;;;;-0.47;69.19;101851.19;10467476;28;20099;-64
2022/01/14 05:17:44;;;;;;;39.35;14.07;;;;;;;-0.45;68.88;101852.06;10466952;28;20136;-63
2022/01/14 05:22:47;;;;;;;51.47;23.08;;;;;;;-0.40;69.04;101851.31;10466839;28;20049;-64
2022/01/14 05:27:49;;;;;;;87.35;18.40;;;;;;;-0.50;68.88;101853.72;10467745;28;20143;-64
2022/01/14 05:32:53;;;;;;;137.07;22.08;;;;;;;-0.72;69.05;101860.19;10466040;28;22014;-64
2022/01/14 05:37:54;;;;;;;150.75;18.40;;;;;;;-0.60;69.13;101855.28;10465387;28;20137;-64
2022/01/14 05:42:56;;;;;;;150.50;18.20;;;;;;;-0.75;69.34;101857.59;10466604;28;20148;-64
2022/01/14 05:47:58;;;;;;;94.03;16.60;;;;;;;-0.72;69.55;101851.66;10466700;28;20049;-64
2022/01/14 05:53:00;;;;;;;63.33;17.83;;;;;;;-0.60;69.43;101856.97;10465708;28;20595;-64
2022/01/14 05:58:02;;;;;;;56.78;15.88;;;;;;;-0.45;69.11;101847.81;10466531;28;20771;-64
2022/01/14 06:03:04;;;;;;;40.92;15.02;;;;;;;-0.43;69.08;101860.66;10466686;28;20053;-64
2022/01/14 06:08:07;;;;;;;50.40;19.90;;;;;;;-0.36;68.87;101847.94;10466307;28;20049;-64
2022/01/14 06:13:09;;;;;;;109.20;17.95;;;;;;;-0.27;68.57;101860.09;10466567;28;20059;-64
2022/01/14 06:18:11;;;;;;;58.83;17.65;;;;;;;-0.25;68.53;101867.81;10448925;28;20136;-64
2022/01/14 06:23:13;;;;;;;60.10;16.60;;;;;;;-0.37;68.16;101860.75;10453384;28;20722;-64
2022/01/14 06:28:15;;;;;;;107.72;17.33;;;;;;;-0.54;68.45;101870.81;10464649;28;20139;-64
2022/01/14 06:33:17;;;;;;;75.50;19.15;;;;;;;-0.49;68.59;101864.00;10447399;28;20140;-64
2022/01/14 06:38:20;;;;;;;55.10;16.55;;;;;;;-0.42;68.72;101858.16;10463622;28;20132;-64
2022/01/14 06:43:21;;;;;;;35.28;16.40;;;;;;;-0.36;68.60;101855.66;10469841;28;20060;-64
2022/01/14 06:48:25;;;;;;;70.65;18.80;;;;;;;-0.34;68.50;101861.69;10472261;28;20409;-64
2022/01/14 06:53:27;;;;;;;71.97;16.75;;;;;;;-0.45;68.69;101858.09;10472694;28;20469;-64
2022/01/14 06:58:28;;;;;;;295.92;22.90;;;;;;;-0.39;68.54;101863.31;10471682;28;20049;-64
2022/01/14 07:03:30;;;;;;;215.10;21.98;;;;;;;-0.48;68.49;101865.75;10472815;28;20997;-64
2022/01/14 07:08:32;;;;;;;106.07;16.50;;;;;;;-0.62;68.82;101861.22;10471888;28;20054;-64
2022/01/14 07:13:34;;;;;;;209.15;18.38;;;;;;;-0.72;68.78;101860.19;10472291;28;20063;-64
2022/01/14 07:18:37;;;;;;;323.13;28.13;;;;;;;-0.71;69.10;101859.38;10472440;28;20159;-64
2022/01/14 07:23:39;;;;;;;112.60;18.30;;;;;;;-0.51;68.70;101859.69;10471490;28;20520;-64
2022/01/14 07:28:41;;;;;;;334.98;23.83;;;;;;;-0.45;68.27;101870.94;10471954;28;20056;-65
2022/01/14 07:33:47;;;;;;;233.38;20.75;;;;;;;-0.53;68.66;101875.09;10471120;28;20465;-64
2022/01/14 07:38:49;;;;;;;432.00;26.02;;;;;;;-0.36;68.57;101876.22;10469755;28;20041;-64
2022/01/14 07:43:51;;;;;;;375.10;23.85;;;;;;;-0.58;68.56;101884.44;10465511;28;20058;-64
2022/01/14 07:48:53;;;;;;;294.00;22.48;;;;;;;-0.52;68.34;101879.41;10470446;28;20064;-64
2022/01/14 07:53:56;;;;;;;635.20;31.90;;;;;;;-0.54;68.58;101877.63;10470064;28;20053;-64
2022/01/14 07:58:58;;;;;;;318.70;20.63;;;;;;;-0.47;68.38;101874.31;10469931;28;20683;-64
2022/01/14 08:04:00;;;;;;;376.27;25.88;;;;;;;-0.54;68.48;101878.50;10452045;28;20179;-64
2022/01/14 08:09:02;;;;;;;190.15;18.90;;;;;;;-0.48;68.61;101876.03;10469564;28;20556;-64
2022/01/14 08:14:03;;;;;;;329.08;19.40;;;;;;;-0.38;68.22;101874.47;10469212;28;20057;-64
2022/01/14 08:19:06;;;;;;;73.13;15.70;;;;;;;-0.28;68.53;101867.75;10469366;28;20127;-64
2022/01/14 08:24:08;;;;;;;406.42;22.80;;;;;;;-0.42;68.08;101860.72;10469614;28;20147;-64
2022/01/14 08:29:09;;;;;;;575.90;28.17;;;;;;;-0.42;68.27;101855.56;10468931;28;20058;-64
2022/01/14 08:34:11;;;;;;;379.92;21.45;;;;;;;-0.43;68.14;101855.53;10468844;28;20052;-64
2022/01/14 08:39:14;;;;;;;156.55;16.20;;;;;;;-0.42;68.24;101865.84;10449054;28;20063;-64
2022/01/14 08:44:16;;;;;;;169.85;17.63;;;;;;;-0.33;68.18;101854.81;10468466;28;20071;-64
2022/01/14 08:49:24;;;;;;;46.17;14.15;;;;;;;-0.14;68.14;101850.81;10468253;28;20059;-65
2022/01/14 08:54:26;;;;;;;56.08;15.38;;;;;;;-0.08;68.10;101858.63;10461908;28;20118;-62
2022/01/14 08:59:28;;;;;;;114.07;15.35;;;;;;;0.04;67.68;101863.94;10467655;28;20052;-62
2022/01/14 09:04:30;;;;;;;67.40;15.45;;;;;;;0.26;67.66;101847.97;10444228;28;20063;-62
2022/01/14 09:09:31;;;;;;;132.80;19.60;;;;;;;0.44;67.16;101843.03;10441683;28;20048;-61
2022/01/14 09:14:36;;;;;;;49.47;13.95;;;;;;;0.44;66.83;101841.28;10459460;28;21112;-61
2022/01/14 09:19:40;;;;;;;26.23;12.52;;;;;;;0.13;67.45;101849.50;10462331;28;20144;-62
2022/01/14 09:24:42;;;;;;;30.98;13.13;;;;;;;0.24;67.24;101862.50;10465317;28;20079;-62
2022/01/14 09:29:45;;;;;;;140.23;19.23;;;;;;;0.34;67.29;101856.63;10465643;28;20114;-62
2022/01/14 09:34:47;;;;;;;36.08;14.95;;;;;;;0.31;67.20;101854.88;10447810;28;20472;-62
2022/01/14 09:39:49;;;;;;;23.90;14.10;;;;;;;0.35;67.43;101848.94;10463129;28;20060;-61
2022/01/14 09:44:51;;;;;;;36.70;17.65;;;;;;;0.46;67.33;101856.78;10464974;28;20502;-62
2022/01/14 09:49:53;;;;;;;36.45;17.50;;;;;;;0.70;67.01;101858.75;10447485;28;20402;-62
2022/01/14 09:54:55;;;;;;;147.52;21.10;;;;;;;0.78;66.74;101857.13;10464997;28;20151;-62
2022/01/14 09:59:57;;;;;;;173.75;18.95;;;;;;;0.90;66.47;101868.44;10464735;28;20065;-62
2022/01/14 10:04:59;;;;;;;106.35;19.33;;;;;;;1.14;66.25;101850.63;10465569;28;20064;-62
2022/01/14 10:10:21;;;;;;;71.65;19.42;;;;;;;1.20;66.28;101840.38;10447943;28;20075;-62
2022/01/14 10:15:23;;;;;;;21.10;13.52;;;;;;;1.24;66.46;101848.97;10460095;28;20398;-62
2022/01/14 10:20:36;;;;;;;21.95;14.45;;;;;;;1.48;65.71;101832.88;10453397;28;20052;-62
2022/01/14 10:25:40;;;;;;;109.45;18.35;;;;;;;1.46;66.00;101844.88;10472860;28;20114;-62
2022/01/14 10:30:44;;;;;;;496.58;26.45;;;;;;;1.37;65.83;101835.34;10473144;28;20059;-62
2022/01/14 10:35:47;;;;;;;381.40;26.75;;;;;;;1.11;66.36;101837.72;10472516;28;20056;-62
2022/01/14 10:40:53;;;;;;;398.00;32.22;;;;;;;0.86;67.09;101851.22;10453359;28;20164;-62
2022/01/14 10:45:56;;;;;;;232.07;22.38;;;;;;;0.99;66.94;101837.59;10472596;28;20143;-62
2022/01/14 10:51:06;;;;;;;365.75;22.80;;;;;;;1.08;66.70;101832.53;10472260;28;20048;-62
2022/01/14 10:56:10;;;;;;;348.10;22.23;;;;;;;1.05;66.53;101829.94;10472470;28;20151;-62
2022/01/14 11:01:15;;;;;;;286.02;24.02;;;;;;;1.16;66.66;101815.41;10467241;28;20078;-62
2022/01/14 11:06:23;;;;;;;276.67;22.95;;;;;;;1.21;66.32;101823.19;10451636;28;20147;-62
2022/01/14 11:11:26;;;;;;;394.10;33.15;;;;;;;1.32;66.37;101832.72;10471779;28;20394;-62
2022/01/14 11:16:28;;;;;;;46.78;17.73;;;;;;;1.56;66.64;101802.84;10453652;28;20048;-62
2022/01/14 11:27:05;;;;;;;102.22;21.48;;;;;;;1.62;66.78;101780.53;10466509;28;20063;-62
2022/01/14 11:32:08;;;;;;;76.40;21.80;;;;;;;1.79;66.43;101772.88;10462371;28;20120;-62
2022/01/14 11:37:17;;;;;;;33.85;18.77;;;;;;;1.88;66.68;101749.72;10469451;28;20149;-62
2022/01/14 11:42:19;;;;;;;32.03;20.67;;;;;;;2.03;66.61;101731.72;10451863;28;20086;-62
2022/01/14 11:47:23;;;;;;;30.98;19.65;;;;;;;2.00;67.32;101731.69;10452316;28;20098;-62
2022/01/14 11:52:43;;;;;;;32.35;20.40;;;;;;;2.10;67.68;101723.13;10469837;28;20194;-62
2022/01/14 11:57:47;;;;;;;30.17;18.05;;;;;;;2.14;67.56;101719.69;10469938;28;21235;-62
2022/01/14 12:02:49;;;;;;;28.63;17.83;;;;;;;2.37;67.44;101715.47;10469337;28;20398;-62
2022/01/14 12:08:11;;;;;;;25.83;17.40;;;;;;;2.52;68.20;101727.53;10451624;28;20144;-62
2022/01/14 12:18:57;;;;;;;24.75;16.85;;;;;;;2.35;67.43;101736.97;10465663;28;20171;-62
2022/01/14 12:23:59;;;;;;;23.30;16.15;;;;;;;2.43;67.71;101727.53;10468346;28;20060;-62
2022/01/14 12:29:13;;;;;;;22.83;15.43;;;;;;;2.63;67.83;101710.31;10469344;28;20052;-62
2022/01/14 12:34:15;;;;;;;26.50;17.75;;;;;;;2.95;67.32;101691.38;10468794;28;20084;-62
2022/01/14 12:39:18;;;;;;;26.77;17.80;;;;;;;3.15;67.27;101685.34;10444086;28;20488;-63
2022/01/14 12:44:22;;;;;;;23.45;17.17;;;;;;;3.33;67.08;101678.41;10465519;28;20416;-62
2022/01/14 12:49:26;;;;;;;23.15;16.27;;;;;;;3.54;66.99;101670.56;10466256;28;20173;-62
2022/01/14 12:54:32;;;;;;;21.70;16.15;;;;;;;3.66;66.70;101660.16;10466125;28;20087;-62
2022/01/14 12:59:43;;;;;;;23.23;15.30;;;;;;;3.76;66.65;101648.91;10466239;28;20049;-62
2022/01/14 13:04:45;;;;;;;21.60;15.07;;;;;;;4.04;66.48;101646.22;10465878;28;20060;-63
2022/01/14 13:09:49;;;;;;;23.25;16.02;;;;;;;4.25;66.23;101636.56;10465795;28;20063;-63
2022/01/14 13:14:59;;;;;;;20.90;15.00;;;;;;;4.35;66.04;101633.03;10448469;28;20052;-62
2022/01/14 13:20:08;;;;;;;18.95;13.93;;;;;;;4.49;65.54;101636.41;10465708;28;20076;-62
2022/01/14 13:25:14;;;;;;;19.42;14.10;;;;;;;4.53;65.19;101635.53;10463759;28;20060;-63
2022/01/14 13:30:19;;;;;;;21.27;15.68;;;;;;;4.57;65.46;101633.75;10465778;28;20155;-62
2022/01/14 13:35:28;;;;;;;21.05;15.18;;;;;;;4.68;64.78;101627.59;10466196;28;20648;-62
2022/01/14 13:40:42;;;;;;;21.80;14.27;;;;;;;4.72;64.81;101632.78;10466070;28;20060;-63
2022/01/14 13:45:47;;;;;;;20.02;14.35;;;;;;;4.60;64.73;101638.91;10463501;28;20803;-62
2022/01/14 13:50:54;;;;;;;23.42;15.52;;;;;;;4.66;64.52;101631.06;10469840;28;20052;-62
2022/01/14 13:56:05;;;;;;;21.95;15.60;;;;;;;4.83;64.56;101639.56;10480181;28;20075;-63
2022/01/14 14:01:08;;;;;;;19.67;14.82;;;;;;;4.91;64.79;101645.53;10478974;28;20071;-62
2022/01/14 14:06:28;;;;;;;19.08;13.90;;;;;;;5.07;64.19;101633.28;10479013;28;20496;-63
2022/01/14 14:16:34;;;;;;;15.95;10.65;;;;;;;5.21;63.25;101645.22;10479229;28;20099;-63
2022/01/14 14:21:36;;;;;;;20.15;14.95;;;;;;;5.57;63.02;101646.56;10460605;28;20045;-63
2022/01/14 14:26:42;;;;;;;24.95;13.88;;;;;;;5.34;63.33;101649.41;10478509;28;21194;-63
2022/01/14 14:31:44;;;;;;;18.02;11.27;;;;;;;5.21;63.09;101644.34;10474747;28;20056;-62
2022/01/14 14:36:46;;;;;;;18.08;12.52;;;;;;;5.12;63.53;101649.66;10477479;28;20056;-63
2022/01/14 14:41:47;;;;;;;16.70;8.95;;;;;;;5.08;63.30;101653.16;10476649;28;20054;-63
2022/01/14 14:46:49;;;;;;;16.60;10.57;;;;;;;5.10;63.26;101635.84;10476095;28;20056;-63
2022/01/14 14:51:51;;;;;;;17.15;10.77;;;;;;;4.87;63.76;101637.81;10478526;28;20048;-63
2022/01/14 14:56:53;;;;;;;15.23;10.15;;;;;;;4.74;63.88;101642.22;10477276;28;20068;-63
2022/01/14 15:01:55;;;;;;;17.05;9.07;;;;;;;4.61;64.07;101646.69;10475129;28;20520;-62
2022/01/14 15:06:57;;;;;;;14.13;8.40;;;;;;;4.69;63.78;101644.88;10453930;28;20464;-62
2022/01/14 15:11:59;;;;;;;15.50;9.02;;;;;;;4.72;63.53;101648.31;10471897;28;20475;-62
2022/01/14 15:22:06;;;;;;;25.00;15.55;;;;;;;4.44;64.29;101648.53;10470682;28;20076;-63
2022/01/14 15:27:11;;;;;;;18.17;11.13;;;;;;;4.35;64.31;101648.59;10469696;28;20532;-62
2022/01/14 15:32:13;;;;;;;18.73;11.07;;;;;;;4.23;64.64;101640.06;10469273;28;20056;-63
2022/01/14 15:37:15;;;;;;;19.75;11.15;;;;;;;4.02;64.73;101632.44;10469667;28;20082;-62
2022/01/14 15:42:17;;;;;;;21.88;10.93;;;;;;;3.94;65.08;101634.19;10468872;28;20143;-62
2022/01/14 15:47:19;;;;;;;20.98;11.20;;;;;;;3.77;65.03;101631.66;10468335;28;20052;-63
2022/01/14 15:52:21;;;;;;;20.88;11.35;;;;;;;3.57;65.54;101634.34;10469733;28;20969;-62
2022/01/14 15:57:23;;;;;;;21.45;12.27;;;;;;;3.39;65.84;101620.63;10468684;28;20057;-63
2022/01/14 16:02:25;;;;;;;23.73;14.52;;;;;;;3.20;65.98;101611.19;10472113;28;20055;-62
2022/01/14 16:07:27;;;;;;;23.77;14.93;;;;;;;3.00;66.33;101621.59;10468631;28;20056;-62
2022/01/14 16:12:38;;;;;;;26.27;14.57;;;;;;;2.93;66.42;101625.91;10469729;28;20538;-62
2022/01/14 16:17:40;;;;;;;25.15;14.77;;;;;;;2.81;67.08;101623.34;10471106;28;20132;-62
2022/01/14 16:22:43;;;;;;;24.80;15.00;;;;;;;2.65;67.44;101631.97;10452140;28;20134;-62
2022/01/14 16:27:46;;;;;;;29.95;16.25;;;;;;;2.48;67.68;101617.38;10468559;28;20139;-62
2022/01/14 16:32:47;;;;;;;29.80;17.50;;;;;;;2.41;67.96;101619.09;10470352;28;20614;-62
2022/01/14 16:37:49;;;;;;;31.58;18.27;;;;;;;2.28;67.80;101614.75;10468758;28;20063;-62
2022/01/14 16:42:53;;;;;;;39.75;21.27;;;;;;;2.11;68.39;101622.47;10469272;28;20055;-62
2022/01/14 16:47:55;;;;;;;37.00;21.73;;;;;;;2.06;68.28;101628.50;10468806;28;20517;-62
2022/01/14 16:52:57;;;;;;;44.72;23.30;;;;;;;1.97;68.20;101638.81;10468244;28;20479;-62
2022/01/14 16:57:59;;;;;;;41.75;23.45;;;;;;;1.92;68.76;101636.22;10468466;28;20052;-63
2022/01/14 17:03:00;;;;;;;44.47;24.80;;;;;;;1.97;68.79;101641.41;10469657;28;20049;-62
2022/01/14 17:08:02;;;;;;;40.45;22.55;;;;;;;1.92;68.71;101637.94;10450103;28;20052;-65
2022/01/14 17:13:04;;;;;;;41.03;24.70;;;;;;;1.82;69.25;101634.47;10467248;28;20135;-64
2022/01/14 17:18:06;;;;;;;43.72;23.77;;;;;;;1.86;68.85;101645.66;10468659;28;20172;-64
2022/01/14 17:23:09;;;;;;;46.00;26.95;;;;;;;1.83;69.33;101637.88;10467792;28;20092;-64
2022/01/14 17:28:12;;;;;;;46.75;27.75;;;;;;;1.83;69.06;101641.34;10466999;28;20049;-64
2022/01/14 17:33:14;;;;;;;48.50;26.48;;;;;;;1.63;69.42;101634.38;10468605;28;20056;-63
2022/01/14 17:38:15;;;;;;;53.28;27.88;;;;;;;1.50;69.13;101636.09;10444138;28;20084;-64
2022/01/14 17:43:20;;;;;;;54.00;29.48;;;;;;;1.47;70.11;101640.34;10447556;28;20055;-64
2022/01/14 17:48:23;;;;;;;54.05;28.27;;;;;;;1.54;69.89;101647.25;10442234;28;20623;-64
2022/01/14 17:53:29;;;;;;;59.85;32.38;;;;;;;1.63;69.68;101639.56;10465285;28;20388;-64
2022/01/14 17:58:31;;;;;;;56.42;29.23;;;;;;;1.84;69.44;101644.78;10464749;28;20582;-64
2022/01/14 18:03:33;;;;;;;53.20;29.00;;;;;;;2.07;69.17;101643.13;10466192;28;20980;-64
2022/01/14 18:08:35;;;;;;;45.67;26.92;;;;;;;2.12;69.02;101641.41;10465875;28;20060;-64
2022/01/14 18:13:57;;;;;;;45.38;24.58;;;;;;;2.30;68.75;101651.75;10465882;28;20151;-64
2022/01/14 18:18:59;;;;;;;54.33;29.13;;;;;;;2.41;68.45;101642.31;10463057;28;20061;-64
2022/01/14 18:24:01;;;;;;;53.75;27.70;;;;;;;2.54;68.53;101651.78;10465869;28;20401;-64
2022/01/14 18:29:03;;;;;;;57.33;32.53;;;;;;;2.67;68.33;101652.63;10466632;28;20147;-64
2022/01/14 18:34:07;;;;;;;48.72;26.45;;;;;;;2.73;68.01;101653.50;10466888;28;20049;-64
2022/01/14 18:39:11;;;;;;;45.60;25.38;;;;;;;2.69;67.85;101656.94;10469926;28;20049;-64
2022/01/14 18:44:15;;;;;;;50.78;27.77;;;;;;;2.78;67.75;101656.09;10472420;28;20685;-64
2022/01/14 18:49:17;;;;;;;50.10;27.90;;;;;;;2.80;67.67;101642.31;10468243;28;20132;-64
2022/01/14 18:54:20;;;;;;;46.55;27.42;;;;;;;2.86;67.62;101646.63;10466460;28;20078;-64
2022/01/14 18:59:22;;;;;;;46.35;25.98;;;;;;;2.85;67.47;101647.47;10466911;28;20048;-64
2022/01/14 19:04:24;;;;;;;42.38;23.88;;;;;;;2.74;67.70;101642.31;10466939;28;20213;-64
2022/01/14 19:09:26;;;;;;;39.40;21.92;;;;;;;2.85;67.53;101634.53;10464661;28;20072;-65
2022/01/14 19:14:28;;;;;;;39.70;22.15;;;;;;;2.91;67.49;101637.97;10467219;28;20048;-64
2022/01/14 19:19:30;;;;;;;31.35;20.17;;;;;;;2.96;67.35;101628.50;10467135;28;20672;-64
2022/01/14 19:24:32;;;;;;;32.63;19.20;;;;;;;3.05;66.99;101633.66;10466354;28;20053;-64
2022/01/14 19:29:34;;;;;;;32.35;19.83;;;;;;;3.06;66.82;101639.69;10468348;28;20137;-64
2022/01/14 19:34:36;;;;;;;30.13;18.75;;;;;;;2.99;67.01;101638.81;10463023;28;20125;-64
2022/01/14 19:39:40;;;;;;;33.47;20.85;;;;;;;2.89;67.28;101631.94;10464415;28;20048;-64
2022/01/14 19:44:42;;;;;;;30.77;18.15;;;;;;;3.01;66.74;101631.94;10464469;28;20059;-63
2022/01/14 19:49:44;;;;;;;30.17;19.63;;;;;;;3.12;66.62;101631.91;10465343;28;20048;-64
2022/01/14 19:54:46;;;;;;;35.08;21.65;;;;;;;3.20;66.52;101626.72;10446826;28;20076;-64
2022/01/14 19:59:49;;;;;;;37.85;22.33;;;;;;;3.16;66.42;101636.22;10466570;28;20106;-65
2022/01/14 20:04:50;;;;;;;35.53;21.98;;;;;;;3.19;66.30;101630.19;10462372;28;20056;-64
2022/01/14 20:09:52;;;;;;;38.42;21.42;;;;;;;3.22;66.09;101636.19;10467909;28;20147;-64
2022/01/14 20:14:54;;;;;;;33.60;20.80;;;;;;;3.14;65.97;101634.47;10463656;28;20713;-64
2022/01/14 20:19:56;;;;;;;36.40;21.33;;;;;;;3.08;66.35;101625.03;10462745;28;20484;-64
2022/01/14 20:24:58;;;;;;;38.17;23.10;;;;;;;3.17;66.15;101619.84;10449667;28;20064;-64
2022/01/14 20:30:07;;;;;;;39.75;23.90;;;;;;;3.14;66.27;101616.38;10449486;28;20060;-64
2022/01/14 20:35:10;;;;;;;43.17;24.10;;;;;;;3.21;66.06;101612.94;10465319;28;20080;-64
2022/01/14 20:40:13;;;;;;;38.25;23.45;;;;;;;3.19;65.84;101599.16;10462491;28;20056;-64
2022/01/14 20:45:18;;;;;;;36.97;22.17;;;;;;;3.18;66.07;101600.88;10464185;28;20048;-64
2022/01/14 20:50:23;;;;;;;38.97;24.52;;;;;;;3.14;66.02;101604.34;10462503;28;20135;-64
2022/01/14 20:55:28;;;;;;;45.67;25.08;;;;;;;3.14;65.80;101590.53;10465179;28;20145;-64
2022/01/14 21:00:31;;;;;;;42.88;24.95;;;;;;;2.99;66.10;101596.59;10464109;28;20064;-65
2022/01/14 21:05:35;;;;;;;46.40;26.67;;;;;;;2.80;66.47;101600.97;10463545;28;20056;-64
2022/01/14 21:10:39;;;;;;;39.20;23.63;;;;;;;2.59;66.82;101595.84;10463944;28;20055;-64
2022/01/14 21:15:41;;;;;;;38.92;24.80;;;;;;;2.69;66.75;101602.69;10464826;28;20052;-64
2022/01/14 21:20:42;;;;;;;40.10;24.42;;;;;;;2.59;66.79;101590.66;10464872;28;20048;-64
2022/01/14 21:25:44;;;;;;;47.47;25.55;;;;;;;2.57;66.65;101584.63;10430217;28;20066;-64
2022/01/14 21:30:46;;;;;;;43.22;27.13;;;;;;;2.74;66.68;101601.00;10462497;28;20060;-64
2022/01/14 21:35:48;;;;;;;41.65;25.80;;;;;;;2.75;66.42;101594.94;10464781;28;20071;-64
2022/01/14 21:40:50;;;;;;;40.85;26.08;;;;;;;2.50;66.75;101589.81;10446023;28;20055;-64
2022/01/14 21:45:56;;;;;;;44.90;27.60;;;;;;;2.40;67.11;101577.78;10460107;28;20137;-65
2022/01/14 21:50:58;;;;;;;45.88;26.92;;;;;;;2.48;67.05;101576.88;10459226;28;20064;-65
2022/01/14 21:56:00;;;;;;;45.83;25.45;;;;;;;2.37;66.81;101570.88;10458814;28;20143;-64
2022/01/14 22:01:02;;;;;;;44.88;26.98;;;;;;;2.39;66.96;101571.75;10460639;28;20060;-65
2022/01/14 22:06:04;;;;;;;43.80;24.58;;;;;;;2.51;66.98;101561.41;10463783;28;20067;-64
2022/01/14 22:11:06;;;;;;;48.28;28.15;;;;;;;2.42;66.97;101555.41;10464454;28;20063;-65
2022/01/14 22:16:08;;;;;;;41.88;26.65;;;;;;;2.47;67.02;101554.53;10451735;28;20411;-65
2022/01/14 22:21:10;;;;;;;43.05;26.45;;;;;;;2.59;66.93;101558.81;10468244;28;20048;-65
2022/01/14 22:26:11;;;;;;;53.70;31.42;;;;;;;2.44;66.92;101544.19;10470722;28;20056;-65
2022/01/14 22:31:13;;;;;;;62.20;32.80;;;;;;;2.39;67.01;101545.06;10469473;28;20059;-65
2022/01/14 22:36:15;;;;;;;56.60;29.50;;;;;;;2.29;67.09;101545.94;10469384;28;20053;-65
2022/01/14 22:41:17;;;;;;;58.85;30.42;;;;;;;2.44;67.07;101548.50;10465459;28;20063;-65
2022/01/14 22:46:19;;;;;;;58.60;31.67;;;;;;;2.35;66.86;101551.09;10468150;28;20151;-65
2022/01/14 22:51:20;;;;;;;57.08;29.25;;;;;;;2.30;67.08;101551.09;10469522;28;20075;-65
2022/01/14 22:56:22;;;;;;;74.55;33.75;;;;;;;2.14;67.44;101555.41;10450483;28;20059;-65
2022/01/14 23:01:24;;;;;;;64.30;30.65;;;;;;;2.16;67.47;101558.84;10469077;28;20052;-65
2022/01/14 23:06:26;;;;;;;73.85;31.52;;;;;;;1.95;67.85;101553.66;10471592;28;20064;-64
2022/01/14 23:11:27;;;;;;;70.88;31.63;;;;;;;1.81;68.31;101554.47;10466103;28;20137;-65
2022/01/14 23:16:30;;;;;;;79.13;30.65;;;;;;;1.86;68.32;101545.06;10468764;28;20052;-65
2022/01/14 23:21:35;;;;;;;69.28;28.88;;;;;;;1.92;68.15;101552.78;10468425;28;20053;-65
2022/01/14 23:26:37;;;;;;;149.43;33.05;;;;;;;1.87;68.21;101544.22;10462454;28;20147;-65
2022/01/14 23:31:38;;;;;;;217.73;33.88;;;;;;;1.62;68.63;101542.44;10463770;28;20048;-65
2022/01/14 23:36:40;;;;;;;188.50;31.77;;;;;;;1.50;68.75;101545.84;10463021;28;20066;-65